aviador You're here:

KHJO Decoded Metar

HANFORD in CA, USA
Report Time2017-11-20 05:27:00
UTC Time2017-11-20 05:45:55
Flight Rules ifr IFR
WindCalm
Visibility4023 m
Phenomena:Mist
Clouds:N/A
Expected CloudBase > 400 ft AGL from Temp-Dew spread
CeilingNone
Temp09°C (ISA -6)
Dew Point08°C (94% RH)
AAT8.6°C
QNH1020 hPa
Density Alt-509 ft
Elevation243 ft
Report Wrong Elevation
Raw Report
KHJO 200527Z AUTO 00000KT 2 1/2SM BR CLR 09/08 A3012 RMK AO2
T00890083 TSNO=

Extra information for KHJO:More info

Metar Taf Metar & Taf Last 4 Metars F.Rules Stats Wind Profile Meteogram Temp Stats Airport Information Weather charts Add Link Nearby VenuesMetar ALERT Operation Metar Decoded Social comments

AIRNAV info for KHJO